»·PEaware :: NKS429 KLAS-KSAN

NKS429 :: KLAS-KSAN

FLIGHT INFORMATION

Flight Status: Arrived
Operator:
Spirit Airlines
More flights by this operator :: More flights under this callsign
Pilot: Anonymous 14085 (14085)
Aircraft: AIRBUS A319
(A319)
More flights by this aircraft type
Origin: KLAS McCarran Intl
United States
Destination: KSAN San Diego Intl-Lindbergh
United States
More flights between these airports :: More routes between these airports
Route: BOACH8 LVELL LUCKI1
File this flight plan on PilotEdge
Remarks: RMK / SIMBRIEF
Altitude:
(Current/Filed)
28,000ft
Speed:
(Current/Filed)
443kts
Departed: 01-Sep-20 05:42 PM
Arrived: 01-Sep-20 06:25 PM
Distance/Time
Traveled:
225nm/0:42
Distance/Time
To Go:
Arrived

Flight Plot

Page will automatically refresh every two minutes.

Flight plan parsing failed; only flown route is shown


Map Options




Map Legend


Flown Route
Filed Route
Departure Airport
Arrival Airport
Navaid (VOR, NDB)
Fix

Horizontal Profiles

Position Reports

Time Latitude Longitude Heading Altitude Ground
Speed
01-Sep-20 17:19 36.085704 -115.154656 146 2187ft 0kts
01-Sep-20 17:20 36.085704 -115.154656 146 2187ft 0kts
01-Sep-20 17:21 36.085704 -115.154656 146 2187ft 0kts
01-Sep-20 17:22 36.085704 -115.154656 146 2187ft 0kts
01-Sep-20 17:23 36.085704 -115.154656 146 2187ft 0kts
01-Sep-20 17:24 36.085704 -115.154656 146 2187ft 0kts
01-Sep-20 17:25 36.085704 -115.154656 146 2187ft 0kts
01-Sep-20 17:26 36.085704 -115.154656 146 2187ft 0kts
01-Sep-20 17:27 36.086073 -115.155033 118 2187ft 2kts
01-Sep-20 17:28 36.086006 -115.155728 45 2187ft 2kts
01-Sep-20 17:29 36.085824 -115.155879 24 2187ft 0kts
01-Sep-20 17:30 36.085824 -115.155879 24 2187ft 0kts
01-Sep-20 17:31 36.085289 -115.156160 216 2187ft 0kts
01-Sep-20 17:32 36.085075 -115.157015 341 2187ft 8kts
01-Sep-20 17:33 36.087960 -115.157396 26 2187ft 12kts
01-Sep-20 17:34 36.091993 -115.155087 24 2187ft 18kts
01-Sep-20 17:35 36.096937 -115.152267 25 2187ft 11kts
01-Sep-20 17:36 36.097956 -115.152546 295 2187ft 0kts
01-Sep-20 17:37 36.097956 -115.152546 295 2187ft 0kts
01-Sep-20 17:38 36.098151 -115.153053 295 2187ft 6kts
01-Sep-20 17:39 36.097889 -115.153953 204 2187ft 0kts
01-Sep-20 17:40 36.097889 -115.153953 204 2187ft 0kts
01-Sep-20 17:41 36.095122 -115.155534 204 2187ft 78kts
01-Sep-20 17:42 36.057229 -115.177389 204 3879ft 162kts
01-Sep-20 17:43 36.012036 -115.208129 235 5859ft 218kts
01-Sep-20 17:44 35.978474 -115.283687 234 8071ft 289kts
01-Sep-20 17:45 35.899341 -115.310602 186 11033ft 328kts
01-Sep-20 17:46 35.797718 -115.308639 175 12497ft 404kts
01-Sep-20 17:47 35.680859 -115.296003 178 15069ft 432kts
01-Sep-20 17:48 35.559139 -115.299366 182 17729ft 447kts
01-Sep-20 17:49 35.434673 -115.304325 182 21149ft 437kts
01-Sep-20 17:50 35.313750 -115.309097 182 23736ft 443kts
01-Sep-20 17:51 35.189278 -115.313990 182 25814ft 455kts
01-Sep-20 17:52 35.061579 -115.318994 181 27603ft 468kts
01-Sep-20 17:53 34.928152 -115.324223 181 27885ft 484kts
01-Sep-20 17:54 34.794976 -115.332883 187 27882ft 484kts
01-Sep-20 17:55 34.666254 -115.380665 198 27885ft 487kts
01-Sep-20 17:56 34.539296 -115.436591 198 27946ft 487kts
01-Sep-20 17:57 34.412056 -115.492056 198 27999ft 486kts
01-Sep-20 17:58 34.289023 -115.556780 208 28009ft 483kts
01-Sep-20 17:59 34.171138 -115.633250 200 28008ft 481kts
01-Sep-20 18:00 34.047009 -115.692278 199 28008ft 481kts
01-Sep-20 18:01 33.922820 -115.750742 199 28008ft 481kts
01-Sep-20 18:02 33.799053 -115.811268 200 28008ft 481kts
01-Sep-20 18:03 33.674927 -115.870165 199 27989ft 480kts
01-Sep-20 18:04 33.550714 -115.928965 204 25927ft 485kts
01-Sep-20 18:05 33.459413 -116.039254 234 22855ft 464kts
01-Sep-20 18:06 33.388187 -116.163216 234 20064ft 440kts
01-Sep-20 18:07 33.311397 -116.265436 210 18309ft 394kts
01-Sep-20 18:08 33.216963 -116.321045 206 16509ft 366kts
01-Sep-20 18:09 33.128879 -116.372337 206 14915ft 335kts
01-Sep-20 18:10 33.048044 -116.419575 205 13476ft 317kts
01-Sep-20 18:11 32.974655 -116.475196 219 11910ft 311kts
01-Sep-20 18:12 32.909843 -116.540880 220 10347ft 303kts
01-Sep-20 18:13 32.845767 -116.605200 220 9385ft 300kts
01-Sep-20 18:14 32.783102 -116.668625 224 8024ft 292kts
01-Sep-20 18:15 32.740258 -116.748506 242 6199ft 277kts
01-Sep-20 18:16 32.707302 -116.819564 247 5988ft 234kts
01-Sep-20 18:17 32.688617 -116.893885 274 4747ft 227kts
01-Sep-20 18:18 32.692618 -116.959861 276 3888ft 170kts
01-Sep-20 18:19 32.695283 -117.014034 268 3090ft 161kts
01-Sep-20 18:20 32.703118 -117.063047 283 2272ft 127kts
01-Sep-20 18:21 32.712541 -117.102955 284 1509ft 124kts
01-Sep-20 18:22 32.721934 -117.142240 285 781ft 122kts
01-Sep-20 18:23 32.731391 -117.180622 285 50ft 119kts
01-Sep-20 18:24 32.734867 -117.199296 275 19ft 27kts
01-Sep-20 18:25 32.734298 -117.205572 176 19ft 8kts
01-Sep-20 18:26 32.733358 -117.199068 116 19ft 0kts
01-Sep-20 18:27 32.733358 -117.199068 116 19ft 0kts
01-Sep-20 18:28 32.733358 -117.199068 116 19ft 0kts

Navigation Log

Ident Type
Flight plan parsing failed, navigation log unavailable